Date,TemperatureHighF,TemperatureAvgF,TemperatureLowF,DewpointHighF,DewpointAvgF,DewpointLowF,HumidityHigh,HumidityAvg,HumidityLow,PressureMaxIn,PressureMinIn,WindSpeedMaxMPH,WindSpeedAvgMPH,GustSpeedMaxMPH,PrecipitationSumIn
2013-1-15,41.9,38.9,34.7,21.0,18.7,15.1,45,44,42,30.63,30.59,5,2,9,0.00
2013-9-12,72.0,61.6,52.7,50.4,45.2,39.2,62,55,45,29.83,29.79,9,1,15,0.00
2013-9-13,78.3,61.2,44.4,51.6,43.3,34.7,76,53,38,29.83,29.67,10,1,14,0.00
2013-9-14,80.6,62.0,45.7,51.3,42.4,35.8,81,52,27,29.74,29.65,11,1,18,0.00
2013-9-15,80.4,63.6,45.3,46.2,40.2,34.2,69,44,28,29.78,29.70,13,2,16,0.00
2013-9-16,78.6,62.1,44.4,44.4,38.6,30.2,62,44,28,29.80,29.70,16,2,16,0.00
2013-9-17,72.3,57.3,39.7,47.7,34.3,15.6,70,44,20,29.75,29.64,13,3,22,0.00
2013-9-18,71.8,55.1,35.1,45.9,34.6,24.3,70,47,29,29.82,29.64,12,2,26,0.00
2013-9-19,75.2,53.9,34.3,36.3,29.3,22.3,71,43,24,29.90,29.81,11,1,14,0.00
2013-9-20,42.1,40.3,39.4,24.3,23.2,22.5,54,50,46,29.87,29.84,0,0,2,0.00
2013-9-22,43.9,38.3,34.2,32.9,29.1,26.8,74,69,65,29.96,29.88,2,0,2,0.00
2013-9-23,34.2,33.4,32.7,27.0,24.9,23.7,75,71,68,30.02,29.97,1,0,2,0.00
2013-9-25,54.7,50.2,41.5,34.3,28.6,22.5,59,44,33,29.58,29.52,28,11,35,0.00
2013-9-26,48.7,41.3,30.7,30.0,26.3,22.5,72,56,38,29.98,29.69,16,4,20,0.00
2013-9-27,59.0,39.8,22.6,34.0,24.9,17.6,82,58,32,30.20,29.98,10,1,12,0.00
2013-9-28,30.0,29.7,29.3,18.5,18.4,18.0,62,62,62,30.21,30.20,1,0,2,0.00
2013-10-7,58.6,52.5,45.1,26.2,21.2,16.5,34,29,27,29.96,29.91,11,1,15,0.00
2013-10-8,48.0,45.2,41.5,17.8,16.5,14.5,34,31,29,29.91,29.84,5,1,9,0.00
2013-10-14,37.2,31.1,27.3,20.8,19.1,18.0,69,61,51,30.20,30.17,1,0,2,0.00
2013-10-15,57.0,38.5,23.7,30.4,22.6,16.3,79,55,36,30.21,30.10,7,1,10,0.00
2013-10-16,28.4,26.5,24.3,17.2,15.9,14.7,67,64,62,30.21,30.20,5,0,5,0.00
2013-10-17,55.0,35.4,24.8,25.0,13.9,8.6,51,42,27,30.19,30.16,7,1,8,0.00
2013-10-19,68.2,49.9,31.6,31.5,21.1,6.3,42,33,22,30.16,30.12,9,2,11,0.00
2013-10-20,67.5,41.3,25.9,30.2,11.6,-0.6,41,30,22,30.14,30.01,7,1,10,0.00
2013-10-27,59.4,50.5,43.2,38.1,32.1,29.5,75,51,33,29.85,29.54,30,10,36,0.00
2013-10-28,44.2,35.9,30.2,29.8,25.3,18.1,87,68,37,29.56,29.49,33,14,48,0.00
2013-10-30,44.1,40.9,37.4,36.0,33.7,31.5,79,75,73,30.15,30.14,0,0,6,0.31
2013-10-31,54.9,54.3,53.4,25.9,24.4,23.2,34,31,30,30.24,30.23,4,1,9,0.00
2013-11-1,49.5,37.7,29.7,31.1,26.9,23.0,76,66,49,30.23,30.21,2,0,4,0.00
2013-11-2,58.3,49.5,45.0,29.3,25.2,21.9,46,39,32,30.12,29.92,11,2,19,0.00
2013-11-3,59.0,41.8,28.6,28.6,23.3,16.3,67,50,22,29.92,29.73,23,4,27,0.00
2013-11-4,44.8,32.6,28.0,29.3,21.1,12.6,77,63,39,29.85,29.74,7,0,9,0.00
2013-11-5,44.6,30.1,24.3,20.3,16.2,14.5,70,58,32,30.44,30.30,1,0,2,0.00
2013-11-6,52.9,52.0,51.4,23.9,23.3,22.6,33,32,32,30.43,30.42,2,0,6,0.00
2013-11-7,53.8,36.2,29.1,30.0,23.8,18.5,69,61,39,30.34,30.17,2,0,5,0.00
2013-11-8,55.0,31.0,27.9,28.6,19.3,16.9,72,62,30,30.18,30.14,4,0,5,0.00